createdAt,value
2022-08-16T00:00:24.959Z,100251.66
2022-08-16T00:05:48.624Z,100252.41
2022-08-16T00:11:15.696Z,100252.41
2022-08-16T00:17:01.502Z,100257.28
2022-08-16T00:22:13.780Z,100255.09
2022-08-16T00:27:31.035Z,100266.38
2022-08-16T00:32:46.308Z,100252.09
2022-08-16T00:38:01.981Z,100252.84
2022-08-16T00:43:42.698Z,100255.66
2022-08-16T00:48:58.975Z,100254.19
2022-08-16T00:54:15.044Z,100254.94
2022-08-16T00:59:37.281Z,100253.47
2022-08-16T01:05:10.829Z,100262.66
2022-08-16T01:10:32.806Z,100261.19
2022-08-16T01:15:52.852Z,100253.31
2022-08-16T01:21:08.982Z,100256.88
2022-08-16T01:26:34.367Z,100249.16
2022-08-16T01:31:51.299Z,100262.53
2022-08-16T01:37:07.319Z,100256.75
2022-08-16T01:42:26.208Z,100261.66
2022-08-16T01:47:48.983Z,100258.84
2022-08-16T01:53:05.067Z,100258.09
2022-08-16T01:58:41.975Z,100253.78
2022-08-16T02:04:10.310Z,100263.03
2022-08-16T02:09:27.350Z,100256.63
2022-08-16T02:14:49.005Z,100258.69
2022-08-16T02:20:11.698Z,100261.50
2022-08-16T02:25:52.858Z,100248.75
2022-08-16T02:31:02.047Z,100255.13
2022-08-16T02:36:48.032Z,100254.38
2022-08-16T02:41:52.992Z,100254.38
2022-08-16T02:47:09.004Z,100252.94
2022-08-16T02:52:24.756Z,100250.09
2022-08-16T02:57:54.579Z,100253.53
2022-08-16T03:03:12.000Z,100245.78
2022-08-16T03:08:52.152Z,100239.41
2022-08-16T03:14:45.280Z,100239.41
2022-08-16T03:20:03.151Z,100226.66
2022-08-16T03:25:19.974Z,100228.75
2022-08-16T03:30:42.301Z,100230.09
2022-08-16T03:35:59.331Z,100235.72
2022-08-16T03:41:50.313Z,100237.78
2022-08-16T03:47:10.376Z,100237.78
2022-08-16T03:52:29.969Z,100239.13
2022-08-16T03:57:52.334Z,100243.19
2022-08-16T04:03:09.381Z,100246.00
2022-08-16T04:08:25.015Z,100254.47
2022-08-16T04:14:01.097Z,100272.00
2022-08-16T04:19:22.042Z,100275.56
2022-08-16T04:24:37.284Z,100285.34
2022-08-16T04:29:53.028Z,100291.75
2022-08-16T04:35:21.052Z,100282.53
2022-08-16T04:40:39.386Z,100291.00
2022-08-16T04:46:00.264Z,100297.22
2022-08-16T04:51:21.275Z,100302.88
2022-08-16T04:56:42.942Z,100314.16
2022-08-16T05:02:02.130Z,100307.03
2022-08-16T05:07:37.276Z,100315.50
2022-08-16T05:13:15.569Z,100318.94
2022-08-16T05:18:32.044Z,100302.00
2022-08-16T05:23:56.032Z,100303.97
2022-08-16T05:29:17.063Z,100317.44
2022-08-16T05:34:47.021Z,100311.06
2022-08-16T05:40:06.413Z,100318.06
2022-08-16T05:45:23.806Z,100318.06
2022-08-16T05:50:42.348Z,100319.53
2022-08-16T05:55:58.018Z,100328.13
2022-08-16T06:01:13.109Z,100323.09
2022-08-16T06:06:33.068Z,100327.41
2022-08-16T06:11:50.305Z,100337.94
2022-08-16T06:17:06.003Z,100336.44
2022-08-16T06:22:38.871Z,100347.16
2022-08-16T06:27:57.605Z,100347.16
2022-08-16T06:33:22.450Z,100349.97
2022-08-16T06:38:38.024Z,100352.78
2022-08-16T06:44:29.317Z,100342.25
2022-08-16T06:49:52.682Z,100353.53
2022-08-16T06:55:18.033Z,100352.78
2022-08-16T07:00:37.767Z,100352.03
2022-08-16T07:05:53.052Z,100361.25
2022-08-16T07:11:20.001Z,100359.19
2022-08-16T07:16:55.326Z,100366.91
2022-08-16T07:22:36.584Z,100375.34
2022-08-16T07:27:58.307Z,100376.09
2022-08-16T07:33:17.205Z,100374.63
2022-08-16T07:38:46.332Z,100381.00
2022-08-16T07:44:03.333Z,100388.09
2022-08-16T07:49:32.396Z,100386.66
2022-08-16T07:54:49.228Z,100408.59
2022-08-16T08:00:09.043Z,100400.88
2022-08-16T08:05:35.786Z,100408.59
2022-08-16T08:10:53.315Z,100417.06
2022-08-16T08:16:09.058Z,100412.91
2022-08-16T08:22:00.082Z,100415.72
2022-08-16T08:27:22.481Z,100418.56
2022-08-16T08:32:57.230Z,100425.53
2022-08-16T08:38:43.972Z,100427.00
2022-08-16T08:43:59.055Z,100428.53
2022-08-16T08:49:14.101Z,100431.34
2022-08-16T08:54:35.394Z,100429.25
2022-08-16T08:59:54.009Z,100427.19
2022-08-16T09:05:15.671Z,100425.09
2022-08-16T09:10:34.371Z,100434.31
2022-08-16T09:15:55.019Z,100428.66
2022-08-16T09:21:11.363Z,100440.69
2022-08-16T09:26:45.924Z,100445.59
2022-08-16T09:32:04.037Z,100447.09
2022-08-16T09:37:29.852Z,100458.50
2022-08-16T09:42:58.706Z,100462.78
2022-08-16T09:48:43.874Z,100457.13
2022-08-16T09:53:53.909Z,100457.88
2022-08-16T09:59:11.042Z,100467.88
2022-08-16T10:04:31.539Z,100461.59
2022-08-16T10:09:54.574Z,100458.19
2022-08-16T10:15:15.191Z,100458.94
2022-08-16T10:20:32.065Z,100458.31
2022-08-16T10:27:20.420Z,100462.03
2022-08-16T10:31:44.086Z,100452.25
2022-08-16T10:36:57.355Z,100467.81
2022-08-16T10:42:13.703Z,100469.31
2022-08-16T10:47:33.188Z,100473.63
2022-08-16T10:52:56.881Z,100470.78
2022-08-16T10:58:14.030Z,100468.13
2022-08-16T11:03:43.222Z,100472.44
2022-08-16T11:14:36.027Z,100484.59
2022-08-16T11:20:01.221Z,100486.06
2022-08-16T11:31:03.068Z,100496.91
2022-08-16T11:36:25.045Z,100499.88
2022-08-16T11:41:44.053Z,100510.56
2022-08-16T11:47:05.327Z,100512.78
2022-08-16T11:52:21.692Z,100519.19
2022-08-16T11:57:37.087Z,100512.22
2022-08-16T12:02:52.058Z,100522.16
2022-08-16T12:08:07.081Z,100521.56
2022-08-16T12:13:22.115Z,100511.72
2022-08-16T12:18:37.387Z,100512.47
2022-08-16T12:23:55.391Z,100522.44
2022-08-16T12:29:11.503Z,100525.41
2022-08-16T12:34:28.804Z,100528.22
2022-08-16T12:39:50.900Z,100519.00
2022-08-16T12:45:06.843Z,100534.75
2022-08-16T12:50:22.089Z,100531.94
2022-08-16T12:55:48.077Z,100534.16
2022-08-16T13:01:04.158Z,100546.16
2022-08-16T13:06:19.948Z,100547.09
2022-08-16T13:11:36.359Z,100548.56
2022-08-16T13:16:53.026Z,100547.97
2022-08-16T13:22:18.522Z,100541.69
2022-08-16T13:28:02.495Z,100542.31
2022-08-16T13:33:13.310Z,100534.88
2022-08-16T13:38:37.055Z,100539.19
2022-08-16T13:43:59.322Z,100538.56
2022-08-16T13:49:15.450Z,100542.88
2022-08-16T13:54:31.943Z,100540.19
2022-08-16T13:59:50.038Z,100544.53
2022-08-16T14:05:05.807Z,100539.00
2022-08-16T14:10:21.200Z,100541.81
2022-08-16T14:15:36.063Z,100544.66
2022-08-16T14:20:51.341Z,100544.66
2022-08-16T14:26:07.069Z,100549.69
2022-08-16T14:31:22.086Z,100548.34
2022-08-16T14:36:40.909Z,100552.63
2022-08-16T14:41:58.096Z,100550.00
2022-08-16T14:47:13.538Z,100540.03
2022-08-16T14:52:52.379Z,100544.34
2022-08-16T14:58:04.065Z,100541.53
2022-08-16T15:03:19.363Z,100542.25
2022-08-16T15:08:40.390Z,100541.53
2022-08-16T15:13:56.043Z,100543.59
2022-08-16T15:19:11.063Z,100542.97
2022-08-16T15:24:26.445Z,100553.56
2022-08-16T15:29:42.081Z,100555.78
2022-08-16T15:35:03.535Z,100548.03
2022-08-16T15:40:26.819Z,100548.78
2022-08-16T15:45:48.034Z,100552.31
2022-08-16T15:51:11.073Z,100556.38
2022-08-16T15:56:28.292Z,100557.72
2022-08-16T16:01:44.388Z,100567.38
2022-08-16T16:07:00.032Z,100560.97
2022-08-16T16:12:43.597Z,100555.97
2022-08-16T16:17:51.097Z,100565.75
2022-08-16T16:23:10.437Z,100561.47
2022-08-16T16:28:51.167Z,100568.44
2022-08-16T16:34:01.085Z,100578.97
2022-08-16T16:39:16.348Z,100567.69
2022-08-16T16:44:36.208Z,100577.50
2022-08-16T16:49:53.185Z,100573.97
2022-08-16T16:55:09.086Z,100569.75
2022-08-16T17:00:25.593Z,100573.97
2022-08-16T17:05:55.978Z,100567.56
2022-08-16T17:11:16.076Z,100568.31
2022-08-16T17:16:33.664Z,100569.63
2022-08-16T17:21:49.123Z,100561.91
2022-08-16T17:27:04.301Z,100566.19
2022-08-16T17:32:33.858Z,100571.13
2022-08-16T17:37:55.323Z,100570.38
2022-08-16T17:43:10.827Z,100566.81
2022-08-16T17:48:26.067Z,100564.72
2022-08-16T17:53:44.894Z,100561.16
2022-08-16T17:59:03.100Z,100568.91
2022-08-16T18:04:49.420Z,100567.44
2022-08-16T18:09:53.165Z,100569.50
2022-08-16T18:15:10.133Z,100574.41
2022-08-16T18:20:25.386Z,100589.28
2022-08-16T18:25:41.325Z,100587.78
2022-08-16T18:31:00.792Z,100598.34
2022-08-16T18:36:20.484Z,100599.69
2022-08-16T18:41:37.295Z,100596.84
2022-08-16T18:46:53.099Z,100594.63
2022-08-16T18:52:08.138Z,100598.06
2022-08-16T18:57:23.133Z,100595.81
2022-08-16T19:02:56.994Z,100607.13
2022-08-16T19:08:13.079Z,100604.91
2022-08-16T19:13:28.430Z,100619.03
2022-08-16T19:18:44.465Z,100622.41
2022-08-16T19:24:00.118Z,100626.59
2022-08-16T19:29:15.374Z,100625.84
2022-08-16T19:34:31.357Z,100635.06
2022-08-16T19:39:47.129Z,100647.69
2022-08-16T19:45:02.100Z,100650.53
2022-08-16T19:50:17.127Z,100658.25
2022-08-16T19:55:32.120Z,100674.47
2022-08-16T20:00:47.081Z,100688.59
2022-08-16T20:06:05.389Z,100687.09
2022-08-16T20:11:20.865Z,100689.19
2022-08-16T20:16:36.433Z,100688.44
2022-08-16T20:21:52.085Z,100695.41
2022-08-16T20:27:07.104Z,100715.94
2022-08-16T20:32:25.685Z,100723.66
2022-08-16T20:37:50.093Z,100724.22
2022-08-16T20:43:05.067Z,100717.84
2022-08-16T20:48:20.101Z,100715.75
2022-08-16T20:53:35.138Z,100708.66
2022-08-16T20:58:50.091Z,100720.53
2022-08-16T21:04:05.183Z,100724.09
2022-08-16T21:09:20.077Z,100725.28
2022-08-16T21:14:35.126Z,100719.78
2022-08-16T21:19:50.083Z,100717.56
2022-08-16T21:25:05.411Z,100714.00
2022-08-16T21:30:27.985Z,100726.03
2022-08-16T21:35:46.851Z,100724.53
2022-08-16T21:41:02.396Z,100725.88
2022-08-16T21:46:18.090Z,100713.84
2022-08-16T21:51:33.145Z,100708.78
2022-08-16T21:56:48.413Z,100705.06
2022-08-16T22:02:04.433Z,100709.22
2022-08-16T22:07:20.390Z,100717.69
2022-08-16T22:12:36.113Z,100714.72
2022-08-16T22:17:52.088Z,100713.97
2022-08-16T22:23:07.369Z,100717.41
2022-08-16T22:28:23.403Z,100711.00
2022-08-16T22:33:39.353Z,100719.34
2022-08-16T22:38:57.531Z,100711.63
2022-08-16T22:44:13.437Z,100707.28
2022-08-16T22:49:29.417Z,100698.06
2022-08-16T22:54:48.841Z,100709.34
2022-08-16T23:00:04.139Z,100708.59
2022-08-16T23:05:19.394Z,100709.97
2022-08-16T23:10:35.473Z,100707.72
2022-08-16T23:15:51.882Z,100707.72
2022-08-16T23:21:07.332Z,100709.09
2022-08-16T23:26:44.775Z,100704.75
2022-08-16T23:31:58.340Z,100694.97
2022-08-16T23:37:14.114Z,100694.22
2022-08-16T23:42:52.417Z,100699.13
2022-08-16T23:48:04.447Z,100698.38
2022-08-16T23:53:20.098Z,100688.41
2022-08-16T23:58:35.423Z,100672.06
